Map

Track Data

SID SEASON NUMBER BASIN SUBBASIN NAME ISO_TIME NATURE LAT LON WMO_WIND WMO_PRES WMO_AGENCY TRACK_TYPE DIST2LAND LANDFALL IFLAG USA_AGENCY USA_ATCF_ID USA_LAT USA_LON USA_RECORD USA_STATUS USA_WIND USA_PRES USA_SSHS USA_R34_NE USA_R34_SE USA_R34_SW USA_R34_NW USA_R50_NE USA_R50_SE USA_R50_SW USA_R50_NW USA_R64_NE USA_R64_SE USA_R64_SW USA_R64_NW USA_POCI USA_ROCI USA_RMW USA_EYE TOKYO_LAT TOKYO_LON TOKYO_GRADE TOKYO_WIND TOKYO_PRES TOKYO_R50_DIR TOKYO_R50_LONG TOKYO_R50_SHORT TOKYO_R30_DIR TOKYO_R30_LONG TOKYO_R30_SHORT TOKYO_LAND CMA_LAT CMA_LON CMA_CAT CMA_WIND CMA_PRES HKO_LAT HKO_LON HKO_CAT HKO_WIND HKO_PRES NEWDELHI_LAT NEWDELHI_LON NEWDELHI_GRADE NEWDELHI_WIND NEWDELHI_PRES NEWDELHI_CI NEWDELHI_DP NEWDELHI_POCI REUNION_LAT REUNION_LON REUNION_TYPE REUNION_WIND REUNION_PRES REUNION_TNUM REUNION_CI REUNION_RMW REUNION_R34_NE REUNION_R34_SE REUNION_R34_SW REUNION_R34_NW REUNION_R50_NE REUNION_R50_SE REUNION_R50_SW REUNION_R50_NW REUNION_R64_NE REUNION_R64_SE REUNION_R64_SW REUNION_R64_NW BOM_LAT BOM_LON BOM_TYPE BOM_WIND BOM_PRES BOM_TNUM BOM_CI BOM_RMW BOM_R34_NE BOM_R34_SE BOM_R34_SW BOM_R34_NW BOM_R50_NE BOM_R50_SE BOM_R50_SW BOM_R50_NW BOM_R64_NE BOM_R64_SE BOM_R64_SW BOM_R64_NW BOM_ROCI BOM_POCI BOM_EYE BOM_POS_METHOD BOM_PRES_METHOD NADI_LAT NADI_LON NADI_CAT NADI_WIND NADI_PRES WELLINGTON_LAT WELLINGTON_LON WELLINGTON_WIND WELLINGTON_PRES DS824_LAT DS824_LON DS824_STAGE DS824_WIND DS824_PRES TD9636_LAT TD9636_LON TD9636_STAGE TD9636_WIND TD9636_PRES TD9635_LAT TD9635_LON TD9635_WIND TD9635_PRES TD9635_ROCI NEUMANN_LAT NEUMANN_LON NEUMANN_CLASS NEUMANN_WIND NEUMANN_PRES MLC_LAT MLC_LON MLC_CLASS MLC_WIND MLC_PRES USA_GUST BOM_GUST BOM_GUST_PER REUNION_GUST REUNION_GUST_PER USA_SEAHGT USA_SEARAD_NE USA_SEARAD_SE USA_SEARAD_SW USA_SEARAD_NW STORM_SPEED STORM_DIR
1939007N07088 1939 1 NI BB NOT_NAMED 1939-01-07 00:00:00 TS 7.20000 88.1000 main 685 663 _________O____ -1 7.20000 88.1000 TC 30 4 310
1939007N07088 1939 1 NI BB NOT_NAMED 1939-01-07 03:00:00 TS 7.33335 87.9334 main 663 642 _________PO___ -1 7.40003 87.8500 TC 30 7.20000 88.1000 1 5 309
1939007N07088 1939 1 NI BB NOT_NAMED 1939-01-07 06:00:00 TS 7.51755 87.6988 main 642 621 _________OP___ -1 7.60000 87.6000 TC 30 7.39388 87.8470 1 6 308
1939007N07088 1939 1 NI BB NOT_NAMED 1939-01-07 09:00:00 TS 7.71005 87.4551 main 623 593 _________PP___ -1 7.79999 87.3500 TC 30 7.59015 87.5952 1 6 309
1939007N07088 1939 1 NI BB NOT_NAMED 1939-01-07 12:00:00 TS 7.89567 87.2229 main 593 573 _________OP___ -1 8.00000 87.1000 TC 30 7.79134 87.3457 1 6 309
1939007N07088 1939 1 NI BB NOT_NAMED 1939-01-07 15:00:00 TS 8.09624 86.9750 main 576 545 _________PO___ -1 8.19248 86.8500 TC 31 8.00000 87.1000 1 6 310
1939007N07088 1939 1 NI BB NOT_NAMED 1939-01-07 18:00:00 TS 8.30886 86.7290 main 545 527 _________OP___ -1 8.40000 86.6000 TC 32 8.21773 86.8580 1 7 313
1939007N07088 1939 1 NI BB NOT_NAMED 1939-01-07 21:00:00 TS 8.54242 86.4862 main 527 502 _________PP___ -1 8.64247 86.3575 TC 33 8.44238 86.6148 1 7 314
1939007N07088 1939 1 NI BB NOT_NAMED 1939-01-08 00:00:00 TS 8.78542 86.2321 main 502 484 _________OP___ -1 8.90000 86.1000 TC 34 8.67084 86.3643 1 7 313
1939007N07088 1939 1 NI BB NOT_NAMED 1939-01-08 03:00:00 TS 9.02875 85.9538 main 488 465 _________PO___ -1 9.15749 85.8075 TC 36 8.90000 86.1000 2 7 310
1939007N07088 1939 1 NI BB NOT_NAMED 1939-01-08 06:00:00 TS 9.26653 85.6612 main 469 444 _________OP___ -1 9.40000 85.5000 TC 39 9.13305 85.8224 2 7 308
1939007N07088 1939 1 NI BB NOT_NAMED 1939-01-08 09:00:00 TS 9.48617 85.3687 main 449 424 _________PP___ -1 9.60745 85.2074 TC 42 9.36489 85.5299 2 7 306
1939007N07088 1939 1 NI BB NOT_NAMED 1939-01-08 12:00:00 TS 9.69464 85.0612 main 429 399 _________OP___ -1 9.80000 84.9000 TC 45 9.58928 85.2224 2 8 304
1939007N07088 1939 1 NI BB NOT_NAMED 1939-01-08 15:00:00 TS 9.90374 84.7287 main 399 380 _________PO___ -1 10.0075 84.5575 TC 45 9.80000 84.9000 3 8 301
1939007N07088 1939 1 NI BB NOT_NAMED 1939-01-08 18:00:00 TS 10.1029 84.3721 main 380 355 _________OP___ -1 10.2000 84.2000 TC 45 10.0057 84.5441 3 8 298
1939007N07088 1939 1 NI BB NOT_NAMED 1939-01-08 21:00:00 TS 10.2801 84.0025 main 355 333 _________PP___ -1 10.3650 83.8275 TC 45 10.1951 84.1776 3 8 295
1939007N07088 1939 1 NI BB NOT_NAMED 1939-01-09 00:00:00 TS 10.4310 83.6611 main 333 314 _________OP___ -1 10.5000 83.5000 TC 45 10.3620 83.8223 3 7 295
1939007N07088 1939 1 NI BB NOT_NAMED 1939-01-09 03:00:00 TS 10.5575 83.3925 main 320 300 _________PO___ -1 10.6149 83.2850 TC 45 10.5000 83.5000 3 5 296
1939007N07088 1939 1 NI BB NOT_NAMED 1939-01-09 06:00:00 TS 10.6599 83.1735 main 306 287 _________OP___ -1 10.7000 83.1000 TC 45 10.6197 83.2471 3 5 292
1939007N07088 1939 1 NI BB NOT_NAMED 1939-01-09 09:00:00 TS 10.7373 82.9462 main 278 267 _________PP___ -1 10.7650 82.8650 TC 45 10.7097 83.0274 3 5 285
1939007N07088 1939 1 NI BB NOT_NAMED 1939-01-09 12:00:00 TS 10.7849 82.7095 main 267 250 _________OP___ -1 10.8000 82.6000 TC 45 10.7698 82.8190 3 5 278
1939007N07088 1939 1 NI BB NOT_NAMED 1939-01-09 15:00:00 TS 10.8075 82.4500 main 250 227 _________PO___ -1 10.8150 82.3000 TC 41 10.8000 82.6000 3 5 272
1939007N07088 1939 1 NI BB NOT_NAMED 1939-01-09 18:00:00 TS 10.8008 82.2020 main 227 213 _________OP___ -1 10.8000 82.0000 TC 37 10.8015 82.3534 3 5 266
1939007N07088 1939 1 NI BB NOT_NAMED 1939-01-09 21:00:00 TS 10.7712 81.9444 main 206 185 _________PP___ -1 10.7575 81.7375 TC 33 10.7804 82.0824 3 5 262
1939007N07088 1939 1 NI BB NOT_NAMED 1939-01-10 00:00:00 TS 10.7294 81.6968 main 185 172 _________OP___ -1 10.7000 81.5000 TC 30 10.7441 81.7952 3 4 261
1939007N07088 1939 1 NI BB NOT_NAMED 1939-01-10 03:00:00 NR 10.7000 81.5000 main 172 __________O___ -1 TC 10.7000 81.5000 1 4 261

About IBTrACS Database

This database is a web-friendly format of International Best Track Archive for Climate Stewardship (IBTrACS), a global best track data archive curated by NOAA dating back to 1842.

Updated: 2021-10-08